Time;durP1;ratioP1;P1;durP2;ratioP2;P2;SDS_P1;SDS_P2;PMS_P1;PMS_P2;Temp;Humidity;BMP_temperature;BMP_pressure;BME280_temperature;BME280_humidity;BME280_pressure;Samples;Min_cycle;Max_cycle;Signal;HPM_P1;HPM_P2
2020/12/18 00:01:55;;;;;;;1.20;1.20;;;2.30;99.90;;;;;;5107924;28;20175;-68
2020/12/18 00:04:21;;;;;;;0.10;0.10;;;2.30;99.90;;;;;;5109655;28;20163;-68
2020/12/18 00:06:47;;;;;;;1.35;1.30;;;2.30;99.90;;;;;;5108506;28;20177;-68
2020/12/18 00:09:12;;;;;;;0.28;0.28;;;2.30;99.90;;;;;;5109490;28;20206;-68
2020/12/18 00:11:38;;;;;;;0.68;0.68;;;2.30;99.90;;;;;;5108441;28;20175;-68
2020/12/18 00:14:04;;;;;;;0.43;0.43;;;2.30;99.90;;;;;;5109881;28;20156;-68
2020/12/18 00:16:32;;;;;;;3.17;2.92;;;2.30;99.90;;;;;;5109538;28;20182;-68
2020/12/18 00:18:58;;;;;;;0.75;0.75;;;2.30;99.90;;;;;;5108787;28;20187;-68
2020/12/18 00:21:24;;;;;;;0.10;0.10;;;2.30;99.90;;;;;;5109244;28;20152;-68
2020/12/18 00:23:51;;;;;;;0.20;0.20;;;2.20;99.90;;;;;;5104103;28;20255;-68
2020/12/18 00:26:18;;;;;;;1.95;1.85;;;2.20;99.90;;;;;;5109219;28;20180;-68
2020/12/18 00:28:44;;;;;;;0.20;0.20;;;2.30;99.90;;;;;;5108112;28;20203;-68
2020/12/18 00:31:11;;;;;;;2.83;2.70;;;2.20;99.90;;;;;;5096520;28;20176;-68
2020/12/18 00:33:37;;;;;;;0.40;0.40;;;2.30;99.90;;;;;;5089076;28;20190;-68
2020/12/18 00:36:04;;;;;;;0.10;0.10;;;2.30;99.90;;;;;;5104068;28;20215;-68
2020/12/18 00:38:30;;;;;;;0.20;0.20;;;2.30;99.90;;;;;;5109530;28;20162;-68
2020/12/18 00:40:56;;;;;;;0.32;0.32;;;2.20;99.90;;;;;;5108981;28;20215;-74
2020/12/18 00:43:22;;;;;;;0.70;0.70;;;2.20;99.90;;;;;;5109233;28;20155;-75
2020/12/18 00:45:47;;;;;;;0.60;0.60;;;2.20;99.90;;;;;;5107251;28;20287;-74
2020/12/18 00:48:13;;;;;;;1.25;0.90;;;2.20;99.90;;;;;;5108762;28;20163;-74
2020/12/18 00:50:39;;;;;;;0.15;0.15;;;2.30;99.90;;;;;;5108867;28;20183;-76
2020/12/18 00:53:05;;;;;;;0.17;0.17;;;2.30;99.90;;;;;;5108790;28;20597;-75
2020/12/18 00:55:31;;;;;;;0.30;0.30;;;2.20;99.90;;;;;;5109137;28;20183;-75
2020/12/18 00:57:57;;;;;;;0.90;0.90;;;2.20;99.90;;;;;;5109243;28;20681;-75
2020/12/18 01:00:23;;;;;;;0.30;0.30;;;2.20;99.90;;;;;;5108740;28;20199;-76
2020/12/18 01:02:49;;;;;;;1.17;1.17;;;2.20;99.90;;;;;;5109244;28;20163;-76
2020/12/18 01:05:15;;;;;;;0.70;0.70;;;2.20;99.90;;;;;;5107637;28;20175;-76
2020/12/18 01:07:40;;;;;;;1.50;1.40;;;2.20;99.90;;;;;;5108932;28;20164;-76
2020/12/18 01:10:07;;;;;;;0.85;0.85;;;2.20;99.90;;;;;;5108672;28;20220;-76
2020/12/18 01:12:32;;;;;;;0.45;0.45;;;2.20;99.90;;;;;;5108408;28;20188;-75
2020/12/18 01:14:58;;;;;;;0.10;0.10;;;2.20;99.90;;;;;;5107799;28;20179;-75
2020/12/18 01:17:24;;;;;;;0.85;0.85;;;2.20;99.90;;;;;;5107083;28;20612;-75
2020/12/18 01:19:50;;;;;;;0.20;0.20;;;2.10;99.90;;;;;;5108919;28;20187;-75
2020/12/18 01:22:16;;;;;;;1.85;1.25;;;2.10;99.90;;;;;;5108949;28;20288;-75
2020/12/18 01:24:42;;;;;;;0.30;0.30;;;2.10;99.90;;;;;;5107730;28;20168;-75
2020/12/18 01:27:08;;;;;;;0.43;0.43;;;2.10;99.90;;;;;;5108977;28;20163;-75
2020/12/18 01:29:33;;;;;;;0.30;0.30;;;2.00;99.90;;;;;;5107418;28;20203;-75
2020/12/18 01:31:59;;;;;;;0.20;0.20;;;2.10;99.90;;;;;;5108780;28;20199;-75
2020/12/18 01:34:25;;;;;;;0.65;0.65;;;2.10;99.90;;;;;;5107219;28;20171;-75
2020/12/18 01:36:51;;;;;;;1.25;1.25;;;2.00;99.90;;;;;;5109882;28;20198;-75
2020/12/18 01:39:17;;;;;;;0.20;0.20;;;2.10;99.90;;;;;;5112639;28;20187;-75
2020/12/18 01:41:43;;;;;;;0.10;0.10;;;2.20;99.90;;;;;;5112574;28;20219;-75
2020/12/18 01:44:08;;;;;;;0.55;0.55;;;2.20;99.90;;;;;;5112558;28;20230;-73
2020/12/18 01:46:37;;;;;;;0.63;0.63;;;2.20;99.90;;;;;;5112590;28;20159;-75
2020/12/18 01:49:04;;;;;;;0.35;0.35;;;2.20;99.90;;;;;;5112270;28;20205;-75
2020/12/18 01:51:30;;;;;;;1.50;1.40;;;2.20;99.90;;;;;;5111769;28;20187;-74
2020/12/18 01:53:56;;;;;;;0.68;0.68;;;2.10;99.90;;;;;;5112133;28;20191;-74
2020/12/18 01:56:24;;;;;;;0.43;0.43;;;2.00;99.90;;;;;;5112090;28;20167;-74
2020/12/18 01:58:52;;;;;;;0.98;0.98;;;2.10;99.90;;;;;;5112204;28;20152;-74
2020/12/18 02:01:18;;;;;;;1.17;1.17;;;2.10;99.90;;;;;;5112258;28;20233;-74
2020/12/18 02:03:44;;;;;;;1.33;0.68;;;2.00;99.90;;;;;;5112192;28;20160;-74
2020/12/18 02:06:14;;;;;;;0.60;0.60;;;2.00;99.90;;;;;;5112200;28;20148;-73
2020/12/18 02:08:42;;;;;;;1.95;1.17;;;2.00;99.90;;;;;;5111666;28;20169;-74
2020/12/18 02:11:20;;;;;;;0.68;0.68;;;2.00;99.90;;;;;;5111991;28;20240;-74
2020/12/18 02:13:49;;;;;;;1.30;1.20;;;2.00;99.90;;;;;;5112026;28;20250;-74
2020/12/18 02:16:16;;;;;;;0.35;0.30;;;2.00;99.90;;;;;;5111933;28;20151;-75
2020/12/18 02:18:43;;;;;;;1.35;1.08;;;2.00;99.90;;;;;;5111834;28;20166;-74
2020/12/18 02:21:09;;;;;;;1.52;1.42;;;1.90;99.90;;;;;;5111795;28;20190;-74
2020/12/18 02:23:40;;;;;;;2.72;2.45;;;2.00;99.90;;;;;;5110912;28;20893;-74
2020/12/18 02:26:08;;;;;;;2.03;1.75;;;2.00;99.90;;;;;;5111868;28;20241;-74
2020/12/18 02:28:38;;;;;;;1.73;1.65;;;2.00;99.90;;;;;;5108308;28;20176;-74
2020/12/18 02:31:06;;;;;;;1.15;1.15;;;2.00;99.90;;;;;;5091440;28;20206;-73
2020/12/18 02:33:32;;;;;;;0.20;0.20;;;2.00;99.90;;;;;;5090781;28;20252;-74
2020/12/18 02:35:59;;;;;;;0.95;0.95;;;2.00;99.90;;;;;;5090807;28;20178;-74
2020/12/18 02:38:25;;;;;;;1.25;1.25;;;2.10;99.90;;;;;;5100270;28;20203;-74
2020/12/18 02:40:52;;;;;;;0.30;0.30;;;2.00;99.90;;;;;;5111007;28;20160;-75
2020/12/18 02:43:19;;;;;;;1.75;0.90;;;2.00;99.90;;;;;;5098788;28;20207;-74
2020/12/18 02:45:44;;;;;;;1.40;0.95;;;2.00;99.90;;;;;;5090958;28;20162;-74
2020/12/18 02:48:11;;;;;;;0.55;0.55;;;2.00;99.90;;;;;;5090076;28;20176;-74
2020/12/18 02:50:37;;;;;;;1.55;0.50;;;2.00;99.90;;;;;;5090654;28;20250;-74
2020/12/18 02:53:15;;;;;;;0.20;0.20;;;2.00;99.90;;;;;;5089544;28;20203;-74
2020/12/18 02:55:42;;;;;;;0.75;0.75;;;1.90;99.90;;;;;;5090654;28;20156;-74
2020/12/18 02:58:10;;;;;;;0.35;0.35;;;2.00;99.90;;;;;;5090495;28;20175;-74
2020/12/18 03:00:37;;;;;;;0.75;0.73;;;2.00;99.90;;;;;;5090632;28;20192;-74
2020/12/18 03:03:06;;;;;;;0.63;0.63;;;2.00;99.90;;;;;;5089419;28;20212;-74
2020/12/18 03:05:33;;;;;;;1.00;1.00;;;2.00;99.90;;;;;;5089463;28;20171;-74
2020/12/18 03:08:00;;;;;;;0.98;0.98;;;2.00;99.90;;;;;;5090521;28;20172;-73
2020/12/18 03:10:26;;;;;;;0.50;0.50;;;1.90;99.90;;;;;;5090092;28;20194;-74
2020/12/18 03:12:53;;;;;;;0.28;0.28;;;1.90;99.90;;;;;;5090262;28;20617;-74
2020/12/18 03:15:19;;;;;;;0.20;0.20;;;1.80;99.90;;;;;;5090315;28;20179;-74
2020/12/18 03:17:45;;;;;;;0.57;0.57;;;1.80;99.90;;;;;;5090080;28;20160;-74
2020/12/18 03:20:11;;;;;;;0.68;0.68;;;1.90;99.90;;;;;;5090055;28;20152;-74
2020/12/18 03:22:37;;;;;;;1.05;1.05;;;1.90;99.90;;;;;;5088971;28;20202;-74
2020/12/18 03:25:04;;;;;;;0.40;0.40;;;1.80;99.90;;;;;;5090334;28;20152;-74
2020/12/18 03:27:30;;;;;;;0.68;0.68;;;1.80;99.90;;;;;;5090320;28;20156;-74
2020/12/18 03:29:57;;;;;;;0.70;0.70;;;1.80;99.90;;;;;;5096920;28;20176;-74
2020/12/18 03:32:23;;;;;;;0.20;0.20;;;1.90;99.90;;;;;;5088089;28;20215;-74
2020/12/18 03:34:49;;;;;;;0.32;0.32;;;1.80;99.90;;;;;;5089635;28;20190;-75
2020/12/18 03:37:14;;;;;;;0.20;0.20;;;1.80;99.90;;;;;;5089606;28;20238;-75
2020/12/18 03:39:40;;;;;;;0.30;0.30;;;1.80;99.90;;;;;;5088149;28;20168;-76
2020/12/18 03:42:06;;;;;;;1.50;1.50;;;1.70;99.90;;;;;;5089400;28;20227;-75
2020/12/18 03:44:32;;;;;;;0.22;0.22;;;1.80;99.90;;;;;;5088499;28;20239;-75
2020/12/18 03:46:58;;;;;;;0.20;0.20;;;1.80;99.90;;;;;;5089659;28;20156;-75
2020/12/18 03:49:24;;;;;;;1.65;1.55;;;1.70;99.90;;;;;;5089596;28;20168;-75
2020/12/18 03:51:50;;;;;;;0.20;0.20;;;1.70;99.90;;;;;;5088735;28;20168;-75
2020/12/18 03:54:15;;;;;;;0.82;0.82;;;1.70;99.90;;;;;;5087851;28;20194;-74
2020/12/18 03:56:41;;;;;;;0.45;0.45;;;1.70;99.90;;;;;;5087610;28;20172;-75
2020/12/18 03:59:07;;;;;;;0.10;0.10;;;1.70;99.90;;;;;;5087847;28;20182;-75
2020/12/18 04:01:33;;;;;;;0.30;0.30;;;1.80;99.90;;;;;;5089467;28;20170;-75
2020/12/18 04:03:59;;;;;;;0.28;0.28;;;1.80;99.90;;;;;;5089237;28;20192;-75
2020/12/18 04:06:25;;;;;;;0.10;0.10;;;1.80;99.90;;;;;;5088919;28;20164;-74
2020/12/18 04:08:50;;;;;;;0.55;0.55;;;1.80;99.90;;;;;;5089401;28;20167;-75
2020/12/18 04:11:16;;;;;;;1.00;1.00;;;1.70;99.90;;;;;;5089069;28;20168;-75
2020/12/18 04:13:42;;;;;;;0.85;0.85;;;1.70;99.90;;;;;;5088980;28;20226;-75
2020/12/18 04:16:08;;;;;;;1.65;1.23;;;1.70;99.90;;;;;;5088749;28;20228;-75
2020/12/18 04:18:34;;;;;;;4.28;2.50;;;1.70;99.90;;;;;;5088783;28;20155;-75
2020/12/18 04:21:00;;;;;;;0.30;0.30;;;1.70;99.90;;;;;;5088735;28;20179;-75
2020/12/18 04:23:29;;;;;;;0.20;0.20;;;1.70;99.90;;;;;;5087484;28;20775;-75
2020/12/18 04:25:54;;;;;;;0.10;0.10;;;1.70;99.90;;;;;;5089204;28;20160;-75
2020/12/18 04:28:20;;;;;;;0.40;0.40;;;1.60;99.90;;;;;;5088882;28;20183;-74
2020/12/18 04:30:47;;;;;;;0.20;0.20;;;1.60;99.90;;;;;;5089162;28;20182;-75
2020/12/18 04:33:13;;;;;;;0.30;0.30;;;1.50;99.90;;;;;;5088878;28;20286;-75
2020/12/18 04:35:38;;;;;;;1.10;1.10;;;1.50;99.90;;;;;;5087751;28;20172;-74
2020/12/18 04:38:05;;;;;;;22.15;1.95;;;1.50;99.90;;;;;;5089220;28;20164;-74
2020/12/18 04:40:33;;;;;;;0.10;0.10;;;1.50;99.90;;;;;;5089005;28;20175;-75
2020/12/18 04:42:59;;;;;;;1.48;1.38;;;1.50;99.90;;;;;;5088801;28;20264;-75
2020/12/18 04:45:25;;;;;;;0.20;0.20;;;1.40;99.90;;;;;;5089080;28;20168;-74
2020/12/18 04:47:54;;;;;;;0.75;0.75;;;1.40;99.90;;;;;;5088860;28;20213;-74
2020/12/18 04:50:20;;;;;;;0.10;0.10;;;1.40;99.90;;;;;;5089080;28;20172;-75
2020/12/18 04:52:47;;;;;;;0.20;0.20;;;1.50;99.90;;;;;;5088894;28;20211;-74
2020/12/18 04:55:17;;;;;;;0.20;0.20;;;1.50;99.90;;;;;;5088704;28;20152;-74
2020/12/18 04:57:46;;;;;;;1.08;1.05;;;1.50;99.90;;;;;;5088771;28;20160;-74
2020/12/18 05:00:11;;;;;;;0.17;0.17;;;1.50;99.90;;;;;;5087749;28;20161;-74
2020/12/18 05:02:38;;;;;;;0.17;0.17;;;1.40;99.90;;;;;;5088294;28;20214;-74
2020/12/18 05:05:08;;;;;;;0.20;0.20;;;1.40;99.90;;;;;;5088946;28;20255;-74
2020/12/18 05:07:35;;;;;;;0.20;0.20;;;1.40;99.90;;;;;;5087691;28;20168;-74
2020/12/18 05:10:00;;;;;;;0.10;0.10;;;1.40;99.90;;;;;;5087000;28;20176;-75
2020/12/18 05:12:26;;;;;;;0.20;0.20;;;1.40;99.90;;;;;;5091313;28;20298;-74
2020/12/18 05:14:52;;;;;;;0.40;0.40;;;1.40;99.90;;;;;;5091221;28;20164;-74
2020/12/18 05:17:18;;;;;;;1.00;1.00;;;1.40;99.90;;;;;;5092512;28;20152;-75
2020/12/18 05:19:45;;;;;;;0.20;0.20;;;1.40;99.90;;;;;;5092695;28;20160;-75
2020/12/18 05:22:12;;;;;;;0.43;0.43;;;1.40;99.90;;;;;;5091255;28;20175;-74
2020/12/18 05:24:39;;;;;;;0.30;0.30;;;1.50;99.90;;;;;;5092588;28;20184;-74
2020/12/18 05:27:07;;;;;;;0.20;0.20;;;1.40;99.90;;;;;;5092599;28;20206;-74
2020/12/18 05:29:36;;;;;;;0.57;0.57;;;1.50;99.90;;;;;;5092142;28;20186;-75
2020/12/18 05:32:02;;;;;;;0.88;0.88;;;1.40;99.90;;;;;;5090886;28;20233;-75
2020/12/18 05:34:29;;;;;;;2.08;1.52;;;1.50;99.90;;;;;;5092379;28;20215;-75
2020/12/18 05:36:55;;;;;;;1.17;0.68;;;1.50;99.90;;;;;;5090888;28;20183;-73
2020/12/18 05:39:21;;;;;;;0.20;0.20;;;1.50;99.90;;;;;;5091017;28;20172;-74
2020/12/18 05:42:01;;;;;;;0.10;0.10;;;1.50;99.90;;;;;;5092017;28;20723;-74
2020/12/18 05:44:29;;;;;;;0.10;0.10;;;1.50;99.90;;;;;;5092046;28;20156;-75
2020/12/18 05:47:09;;;;;;;1.00;0.88;;;1.50;99.90;;;;;;5090849;28;20182;-75
2020/12/18 05:49:40;;;;;;;0.10;0.10;;;1.60;99.90;;;;;;5091919;28;20211;-74
2020/12/18 05:52:08;;;;;;;0.10;0.10;;;1.50;99.90;;;;;;5091230;28;20203;-75
2020/12/18 05:54:38;;;;;;;0.10;0.10;;;1.50;99.90;;;;;;5091778;28;20585;-74
2020/12/18 05:57:12;;;;;;;0.30;0.30;;;1.40;99.90;;;;;;5091823;28;20168;-75
2020/12/18 05:59:46;;;;;;;0.17;0.17;;;1.60;99.90;;;;;;5091777;28;20628;-74
2020/12/18 06:02:16;;;;;;;0.20;0.20;;;1.60;99.90;;;;;;5091780;28;20175;-74
2020/12/18 06:04:43;;;;;;;0.28;0.28;;;1.60;99.90;;;;;;5091692;28;20216;-74
2020/12/18 06:07:10;;;;;;;0.55;0.55;;;1.60;99.90;;;;;;5091667;28;20175;-74
2020/12/18 06:09:36;;;;;;;0.88;0.82;;;1.60;99.90;;;;;;5090202;28;20251;-74
2020/12/18 06:12:07;;;;;;;0.50;0.50;;;1.60;99.90;;;;;;5091409;28;20162;-74
2020/12/18 06:14:34;;;;;;;1.00;1.00;;;1.60;99.90;;;;;;5095635;28;20183;-74
2020/12/18 06:17:07;;;;;;;0.55;0.55;;;1.60;99.90;;;;;;5093605;28;20224;-75
2020/12/18 06:19:41;;;;;;;0.63;0.63;;;1.70;99.90;;;;;;5110149;28;20160;-74
2020/12/18 06:22:10;;;;;;;0.43;0.43;;;1.60;99.90;;;;;;5100913;28;20171;-75
2020/12/18 06:24:41;;;;;;;0.30;0.30;;;1.60;99.90;;;;;;5091237;28;20175;-75
2020/12/18 06:27:18;;;;;;;2.92;2.80;;;1.60;99.90;;;;;;5091167;28;20168;-74
2020/12/18 06:29:46;;;;;;;1.10;1.10;;;1.60;99.90;;;;;;5092777;28;20194;-75
2020/12/18 06:32:31;;;;;;;0.15;0.15;;;1.60;99.90;;;;;;5111124;28;20190;-74
2020/12/18 06:35:24;;;;;;;0.10;0.10;;;1.50;99.90;;;;;;5111344;28;20175;-75
2020/12/18 06:37:50;;;;;;;0.30;0.30;;;1.60;99.90;;;;;;5110829;28;20223;-74
2020/12/18 06:40:31;;;;;;;0.17;0.17;;;1.60;99.90;;;;;;5111177;28;20155;-75
2020/12/18 06:42:58;;;;;;;0.32;0.32;;;1.60;99.90;;;;;;5109807;28;20226;-75
2020/12/18 06:45:25;;;;;;;0.30;0.30;;;1.60;99.90;;;;;;5111464;28;20156;-74
2020/12/18 06:47:52;;;;;;;0.10;0.10;;;1.60;99.90;;;;;;5100227;28;20168;-75
2020/12/18 06:50:19;;;;;;;0.20;0.20;;;1.60;99.90;;;;;;5090826;28;20171;-75
2020/12/18 06:52:53;;;;;;;0.10;0.10;;;1.60;99.90;;;;;;5090965;28;20250;-68
2020/12/18 06:55:30;;;;;;;0.30;0.30;;;1.50;99.90;;;;;;5090962;28;20297;-66
2020/12/18 06:58:16;;;;;;;0.50;0.50;;;1.60;99.90;;;;;;5090502;28;20179;-69
2020/12/18 07:00:48;;;;;;;0.20;0.20;;;1.60;99.90;;;;;;5108053;28;20209;-68
2020/12/18 07:03:38;;;;;;;0.25;0.25;;;1.60;99.90;;;;;;5109924;28;20152;-68
2020/12/18 07:06:06;;;;;;;0.10;0.10;;;1.70;99.90;;;;;;5110835;28;20167;-66
2020/12/18 07:08:34;;;;;;;0.10;0.10;;;1.60;99.90;;;;;;5110915;28;20160;-68
2020/12/18 07:11:12;;;;;;;0.38;0.38;;;1.70;99.90;;;;;;5110672;28;20170;-74
2020/12/18 07:13:46;;;;;;;0.75;0.75;;;1.70;99.90;;;;;;5110468;28;20183;-74
2020/12/18 07:16:13;;;;;;;3.30;3.03;;;1.70;99.90;;;;;;5110586;28;20159;-74
2020/12/18 07:18:42;;;;;;;0.25;0.25;;;1.70;99.90;;;;;;5108732;28;20618;-74
2020/12/18 07:21:11;;;;;;;0.43;0.43;;;1.80;99.90;;;;;;5110680;28;20152;-74
2020/12/18 07:23:46;;;;;;;0.30;0.30;;;1.80;99.90;;;;;;5110445;28;20155;-74
2020/12/18 07:26:14;;;;;;;0.52;0.52;;;1.90;99.90;;;;;;5110488;28;20169;-74
2020/12/18 07:28:41;;;;;;;0.88;0.73;;;1.90;99.90;;;;;;5110383;28;20159;-74
2020/12/18 07:31:17;;;;;;;0.10;0.10;;;2.00;99.90;;;;;;5108981;28;20228;-75
2020/12/18 07:33:44;;;;;;;1.60;1.50;;;2.00;99.90;;;;;;5108946;28;20224;-74
2020/12/18 07:36:11;;;;;;;1.25;1.13;;;2.00;99.90;;;;;;5110329;28;20159;-73
2020/12/18 07:38:38;;;;;;;0.40;0.40;;;2.00;99.90;;;;;;5110287;28;20209;-73
2020/12/18 07:41:10;;;;;;;0.35;0.35;;;2.00;99.90;;;;;;5109857;28;20209;-73
2020/12/18 07:43:37;;;;;;;1.35;1.27;;;2.00;99.90;;;;;;5109991;28;20258;-74
2020/12/18 07:46:06;;;;;;;0.17;0.17;;;2.00;99.90;;;;;;5109960;28;20159;-74
2020/12/18 07:48:40;;;;;;;0.13;0.13;;;2.00;99.90;;;;;;5109796;28;20162;-73
2020/12/18 07:51:15;;;;;;;2.42;1.38;;;2.00;99.90;;;;;;5109988;28;20164;-73
2020/12/18 07:53:42;;;;;;;0.88;0.88;;;2.00;99.90;;;;;;5109683;28;20195;-73
2020/12/18 07:56:13;;;;;;;0.22;0.22;;;2.10;99.90;;;;;;5105134;28;20227;-73
2020/12/18 07:58:47;;;;;;;0.65;0.65;;;2.20;99.90;;;;;;5096532;28;20699;-73
2020/12/18 08:01:21;;;;;;;0.35;0.35;;;2.10;99.90;;;;;;5106700;28;20194;-72
2020/12/18 08:03:52;;;;;;;0.80;0.80;;;2.10;99.90;;;;;;5109655;28;20211;-72
2020/12/18 08:06:20;;;;;;;0.52;0.52;;;2.10;99.90;;;;;;5100492;28;20214;-72
2020/12/18 08:08:55;;;;;;;0.65;0.65;;;2.10;99.90;;;;;;5104947;28;20217;-72
2020/12/18 08:11:22;;;;;;;0.20;0.20;;;2.10;99.90;;;;;;5095337;28;20183;-72
2020/12/18 08:13:50;;;;;;;0.95;0.95;;;2.20;99.90;;;;;;5105081;28;20203;-73
2020/12/18 08:16:21;;;;;;;0.75;0.70;;;2.10;99.90;;;;;;5087921;28;20157;-72
2020/12/18 08:18:58;;;;;;;0.10;0.10;;;2.20;99.90;;;;;;5099438;28;20198;-72
2020/12/18 08:21:26;;;;;;;0.30;0.30;;;2.20;99.90;;;;;;5107945;28;20163;-72
2020/12/18 08:23:59;;;;;;;0.20;0.20;;;2.20;99.90;;;;;;5108852;28;20208;-72
2020/12/18 08:26:30;;;;;;;1.73;1.08;;;2.30;99.90;;;;;;5106440;28;20161;-72
2020/12/18 08:28:56;;;;;;;0.30;0.30;;;2.30;99.90;;;;;;5087608;28;20241;-72
2020/12/18 08:31:22;;;;;;;2.97;2.13;;;2.30;99.90;;;;;;5088865;28;20160;-72
2020/12/18 08:33:53;;;;;;;0.75;0.75;;;2.40;99.90;;;;;;5087282;28;20196;-72
2020/12/18 08:36:23;;;;;;;1.67;1.58;;;2.50;99.90;;;;;;5087333;28;20168;-72
2020/12/18 08:39:06;;;;;;;1.02;1.02;;;2.50;99.90;;;;;;5088817;28;20191;-72
2020/12/18 08:41:39;;;;;;;0.50;0.50;;;2.50;99.90;;;;;;5088648;28;20274;-72
2020/12/18 08:44:07;;;;;;;0.80;0.80;;;2.60;99.90;;;;;;5096744;28;20167;-72
2020/12/18 08:46:34;;;;;;;0.38;0.38;;;2.70;99.90;;;;;;5108798;28;20689;-72
2020/12/18 08:49:01;;;;;;;0.38;0.38;;;2.70;99.90;;;;;;5107660;28;20198;-72
2020/12/18 08:51:28;;;;;;;1.90;1.83;;;2.80;99.90;;;;;;5109014;28;20159;-72
2020/12/18 08:53:53;;;;;;;0.30;0.30;;;2.80;99.90;;;;;;5107532;28;20218;-72
2020/12/18 08:56:20;;;;;;;0.20;0.20;;;2.80;99.90;;;;;;5109061;28;20227;-72
2020/12/18 08:58:46;;;;;;;0.38;0.38;;;2.80;99.90;;;;;;5108940;28;20190;-72
2020/12/18 09:01:22;;;;;;;0.57;0.57;;;2.80;99.90;;;;;;5109117;28;20151;-72
2020/12/18 09:03:48;;;;;;;0.35;0.35;;;2.80;99.90;;;;;;5108907;28;20158;-72
2020/12/18 09:06:14;;;;;;;0.75;0.75;;;2.80;99.90;;;;;;5109202;28;20160;-72
2020/12/18 09:08:39;;;;;;;0.45;0.45;;;3.00;99.90;;;;;;5108171;28;20199;-72
2020/12/18 09:11:05;;;;;;;0.32;0.32;;;2.90;99.90;;;;;;5103756;28;20183;-71
2020/12/18 09:13:36;;;;;;;0.32;0.32;;;2.90;99.90;;;;;;5091072;28;20252;-73
2020/12/18 09:16:07;;;;;;;0.80;0.77;;;3.00;99.90;;;;;;5089584;28;20160;-72
2020/12/18 09:18:37;;;;;;;0.30;0.30;;;3.00;99.90;;;;;;5088398;28;20215;-72
2020/12/18 09:21:17;;;;;;;4.30;3.83;;;3.20;99.90;;;;;;5099872;28;20432;-72
2020/12/18 09:23:44;;;;;;;1.02;1.02;;;3.30;99.90;;;;;;5108784;28;20203;-72
2020/12/18 09:26:10;;;;;;;0.30;0.30;;;3.20;99.90;;;;;;5108782;28;20151;-71
2020/12/18 09:28:39;;;;;;;0.90;0.90;;;3.20;99.90;;;;;;5108357;28;20191;-73
2020/12/18 09:31:08;;;;;;;1.02;1.02;;;3.30;99.90;;;;;;5108099;28;20215;-74
2020/12/18 09:33:38;;;;;;;1.02;1.02;;;3.20;99.90;;;;;;5108466;28;20285;-74
2020/12/18 09:36:06;;;;;;;0.30;0.30;;;3.20;99.90;;;;;;5107369;28;20216;-74
2020/12/18 09:38:41;;;;;;;0.32;0.32;;;3.20;99.90;;;;;;5107126;28;20202;-73
2020/12/18 09:41:15;;;;;;;0.60;0.60;;;3.20;99.90;;;;;;5107697;28;20207;-72
2020/12/18 09:43:42;;;;;;;0.20;0.20;;;3.10;99.90;;;;;;5107619;28;20187;-72
2020/12/18 09:46:11;;;;;;;0.30;0.30;;;3.20;99.90;;;;;;5106420;28;20210;-72
2020/12/18 09:48:42;;;;;;;0.50;0.50;;;3.30;99.90;;;;;;5107710;28;20171;-73
2020/12/18 09:51:08;;;;;;;0.70;0.70;;;3.30;99.90;;;;;;5107679;28;20175;-73
2020/12/18 09:53:34;;;;;;;0.17;0.17;;;3.30;99.90;;;;;;5108155;28;20199;-72
2020/12/18 09:56:00;;;;;;;3.05;1.75;;;3.40;99.90;;;;;;5107842;28;20198;-73
2020/12/18 09:58:27;;;;;;;0.20;0.20;;;3.60;99.90;;;;;;5110198;28;20158;-73
2020/12/18 10:00:53;;;;;;;0.17;0.17;;;3.60;99.90;;;;;;5111503;28;20167;-73
2020/12/18 10:03:19;;;;;;;0.73;0.73;;;3.60;99.90;;;;;;5111411;28;20208;-73
2020/12/18 10:05:45;;;;;;;1.83;1.73;;;3.70;99.90;;;;;;5108983;28;20195;-73
2020/12/18 10:08:12;;;;;;;4.18;2.10;;;3.80;99.90;;;;;;5108352;28;20409;-72
2020/12/18 10:10:38;;;;;;;0.73;0.63;;;3.80;99.90;;;;;;5106625;28;20236;-73
2020/12/18 10:13:04;;;;;;;0.20;0.20;;;4.00;99.90;;;;;;5090160;28;20208;-72
2020/12/18 10:15:30;;;;;;;0.60;0.60;;;4.20;99.90;;;;;;5109947;28;20175;-74
2020/12/18 10:17:56;;;;;;;0.38;0.38;;;4.30;99.90;;;;;;5111416;28;20177;-73
2020/12/18 10:20:22;;;;;;;0.30;0.30;;;4.50;99.90;;;;;;5092063;28;20418;-73
2020/12/18 10:22:48;;;;;;;0.17;0.17;;;4.60;99.90;;;;;;5091430;28;20537;-73
2020/12/18 10:25:15;;;;;;;1.80;1.67;;;4.60;99.90;;;;;;5091291;28;20165;-74
2020/12/18 10:27:43;;;;;;;0.30;0.30;;;4.60;99.90;;;;;;5091295;28;20213;-74
2020/12/18 10:30:08;;;;;;;2.53;0.85;;;4.60;99.90;;;;;;5088647;28;20226;-74
2020/12/18 10:32:34;;;;;;;0.28;0.28;;;4.70;99.90;;;;;;5090773;28;20200;-73
2020/12/18 10:35:01;;;;;;;2.55;2.40;;;4.80;99.90;;;;;;5091105;28;20157;-73
2020/12/18 10:37:28;;;;;;;1.50;1.45;;;4.90;99.90;;;;;;5107192;28;20200;-73
2020/12/18 10:39:54;;;;;;;1.48;1.38;;;4.80;99.90;;;;;;5109950;28;20167;-73
2020/12/18 10:42:20;;;;;;;1.17;0.73;;;4.80;99.90;;;;;;5109542;28;20246;-72
2020/12/18 10:44:46;;;;;;;2.55;2.45;;;4.90;99.90;;;;;;5100110;28;20176;-72
2020/12/18 10:47:12;;;;;;;0.47;0.47;;;4.80;99.90;;;;;;5107926;28;20199;-72
2020/12/18 10:49:38;;;;;;;1.80;1.80;;;4.90;99.90;;;;;;5096466;28;20228;-73
2020/12/18 10:52:05;;;;;;;0.28;0.28;;;5.00;99.90;;;;;;5103258;28;20171;-72
2020/12/18 10:54:31;;;;;;;0.93;0.93;;;5.00;99.90;;;;;;5090148;28;20256;-72
2020/12/18 10:56:57;;;;;;;0.30;0.30;;;5.00;99.90;;;;;;5102853;28;20663;-72
2020/12/18 10:59:26;;;;;;;0.65;0.65;;;5.00;99.90;;;;;;5096667;28;20166;-72
2020/12/18 11:01:56;;;;;;;2.35;0.77;;;4.70;99.90;;;;;;5105508;28;20167;-72
2020/12/18 11:04:23;;;;;;;0.95;0.95;;;4.50;99.90;;;;;;5110659;28;20167;-72
2020/12/18 11:06:49;;;;;;;0.25;0.25;;;4.50;99.90;;;;;;5110021;28;20178;-72
2020/12/18 11:09:16;;;;;;;1.25;1.25;;;4.40;99.90;;;;;;5110073;28;20228;-72
2020/12/18 11:11:43;;;;;;;1.73;1.63;;;4.60;99.90;;;;;;5110163;28;20163;-72
2020/12/18 11:14:09;;;;;;;1.55;1.45;;;4.60;99.90;;;;;;5110424;28;20191;-73
2020/12/18 11:16:37;;;;;;;0.65;0.65;;;4.70;99.90;;;;;;5108983;28;20195;-73
2020/12/18 11:19:03;;;;;;;1.67;1.17;;;4.80;99.90;;;;;;5109095;28;20518;-72
2020/12/18 11:21:29;;;;;;;0.98;0.93;;;4.70;99.90;;;;;;5106333;28;20233;-72
2020/12/18 11:23:56;;;;;;;0.57;0.57;;;4.70;99.90;;;;;;5109410;28;20167;-72
2020/12/18 11:26:21;;;;;;;0.52;0.47;;;4.80;99.90;;;;;;5109696;28;20171;-72
2020/12/18 11:28:47;;;;;;;0.85;0.85;;;4.90;99.90;;;;;;5109931;28;20163;-73
2020/12/18 11:31:13;;;;;;;1.45;1.40;;;5.00;99.90;;;;;;5110055;28;20278;-73
2020/12/18 11:33:39;;;;;;;0.10;0.10;;;5.20;99.90;;;;;;5109379;28;20187;-72
2020/12/18 11:36:05;;;;;;;0.55;0.55;;;5.30;99.90;;;;;;5106948;28;20254;-73
2020/12/18 11:38:30;;;;;;;0.22;0.22;;;5.30;99.90;;;;;;5109786;28;20187;-73
2020/12/18 11:40:56;;;;;;;1.42;1.33;;;5.20;99.90;;;;;;5108545;28;20202;-72
2020/12/18 11:43:22;;;;;;;0.10;0.10;;;5.10;99.90;;;;;;5108429;28;20171;-72
2020/12/18 11:45:48;;;;;;;0.88;0.85;;;4.90;99.90;;;;;;5107982;28;20206;-73
2020/12/18 11:48:13;;;;;;;0.93;0.93;;;4.90;99.90;;;;;;5109678;28;20167;-73
2020/12/18 11:50:39;;;;;;;0.10;0.10;;;4.90;99.90;;;;;;5095628;28;20219;-73
2020/12/18 11:53:05;;;;;;;1.20;1.17;;;5.00;99.90;;;;;;5089184;28;20187;-73
2020/12/18 11:55:32;;;;;;;0.13;0.13;;;5.10;99.90;;;;;;5093226;28;20205;-73
2020/12/18 11:57:57;;;;;;;0.35;0.35;;;5.10;99.90;;;;;;5107955;28;20171;-73
2020/12/18 12:00:23;;;;;;;1.60;1.05;;;5.30;99.90;;;;;;5106544;28;20202;-73
2020/12/18 12:02:50;;;;;;;0.82;0.82;;;5.20;99.90;;;;;;5109108;28;20174;-72
2020/12/18 12:05:20;;;;;;;1.67;1.65;;;5.00;99.90;;;;;;5107228;28;20171;-72
2020/12/18 12:07:47;;;;;;;0.63;0.63;;;4.90;99.90;;;;;;5101204;28;20163;-72
2020/12/18 12:10:14;;;;;;;0.68;0.68;;;4.90;99.90;;;;;;5087825;28;20291;-72
2020/12/18 12:12:40;;;;;;;0.82;0.82;;;5.10;99.90;;;;;;5108614;28;20179;-73
2020/12/18 12:15:07;;;;;;;0.50;0.50;;;5.40;99.90;;;;;;5107303;28;20171;-73
2020/12/18 12:17:32;;;;;;;0.32;0.32;;;5.60;99.90;;;;;;5107706;28;20295;-73
2020/12/18 12:19:58;;;;;;;0.52;0.52;;;5.90;99.90;;;;;;5108209;28;20155;-73
2020/12/18 12:22:24;;;;;;;1.65;0.77;;;5.90;99.90;;;;;;5107179;28;20178;-73
2020/12/18 12:24:51;;;;;;;0.75;0.73;;;5.70;99.90;;;;;;5108667;28;20216;-73
2020/12/18 12:27:22;;;;;;;1.00;1.00;;;5.50;99.90;;;;;;5108617;28;20180;-73
2020/12/18 12:29:48;;;;;;;1.77;1.67;;;5.40;99.90;;;;;;5108932;28;20178;-73
2020/12/18 12:32:13;;;;;;;1.02;1.02;;;5.10;99.90;;;;;;5108505;28;20186;-72
2020/12/18 12:34:39;;;;;;;0.40;0.40;;;4.90;99.90;;;;;;5109137;28;20186;-73
2020/12/18 12:37:05;;;;;;;0.60;0.60;;;4.90;99.90;;;;;;5108568;28;20152;-73
2020/12/18 12:39:31;;;;;;;1.83;1.50;;;4.90;99.90;;;;;;5094581;28;20206;-73
2020/12/18 12:41:56;;;;;;;0.17;0.17;;;4.90;99.90;;;;;;5086772;28;20224;-72
2020/12/18 12:44:22;;;;;;;0.52;0.52;;;4.90;99.90;;;;;;5090169;28;20229;-73
2020/12/18 12:46:48;;;;;;;0.88;0.88;;;5.00;99.90;;;;;;5108669;28;20159;-73
2020/12/18 12:49:14;;;;;;;0.55;0.55;;;5.10;99.90;;;;;;5108611;28;20190;-72
2020/12/18 12:51:40;;;;;;;0.63;0.63;;;5.10;99.90;;;;;;5108892;28;20152;-73
2020/12/18 12:54:06;;;;;;;0.63;0.63;;;5.10;99.90;;;;;;5108676;28;20182;-73
2020/12/18 12:56:32;;;;;;;0.40;0.40;;;5.20;99.90;;;;;;5108903;28;20238;-73
2020/12/18 12:58:58;;;;;;;0.10;0.10;;;5.20;99.90;;;;;;5107687;28;20194;-73
2020/12/18 13:01:24;;;;;;;0.25;0.25;;;5.20;99.90;;;;;;5108925;28;20154;-73